Pagrindinis puslapis
METAR-TAF:

METAR-TAF

Oro uostai :

Maršalo Salų tarptautinis oro uostas

Madžūras, Maršalo salos

platuma: 07-04N, ilguma: 171-17E, Aukštis: 2 m

Dabartinis oras

Ataskaita buvo paskelbta 3 valandos ir 19 minutes, ne 22:51 UTC
Vėjas 13 kt iš Vakarų/Pietvakarių
Temperatūra 29°C
Drėgmė 79%
Slėgis 1012 hPa
Matomumas: 24.1 km
Mažai debesys ne aukštis 1500 ft
Išsisklaidę debesys ne aukštis 5000 ft
Su prošvaistėmis ne aukštis 30000 ft

METAR: PKMJ 162251Z 24013KT 15SM FEW015 SCT050 BKN300 29/25 A2988 RMK LAST

Laikas: 14:10 (02:10 UTC)

Prognozė

Ataskaita buvo paskelbta 2 valandos ir 50 minutes, ne 23:20 UTC
Prognozė galioja nuo 17 metu 00 UTC su 17 metu 24 UTC
Vėjas 12 kt iš Vakarų/Pietvakarių
Matomumas: 10 km
Mažai debesys ne aukštis 1500 ft
Išsisklaidę debesys ne aukštis 5000 ft
Išsisklaidę debesys ne aukštis 14000 ft
Liūtis kaimynystėje

TAF: PKMJ 162320Z 1700/1724 24012KT P6SM VCSH FEW015 SCT050 SCT140

Orai ataskaitas ir orų prognozės (METAR, TAF).

turimą stotys yra geltonos ir raudonos taškus žemėlapyje.

Perkelti pele per norėdami pamatyti stoties vardą.

Tada spustelėkite, norėdami matyti oro stebėjimo ir prognozės.

Norėdami pakeisti žemėlapį: spustelėkite ant žalios mygtukų su juodo kryžiaus žemyn,; žalią mygtuką su brūkšneliu, jei norite nutolinti; arba žalių rodyklių gretimoms žemėlapius.


METAR-TAF: